Time;durP1;ratioP1;P1;durP2;ratioP2;P2;SDS_P1;SDS_P2;PMS_P1;PMS_P2;Temp;Humidity;BMP_temperature;BMP_pressure;BME280_temperature;BME280_humidity;BME280_pressure;Samples;Min_cycle;Max_cycle;Signal;HPM_P1;HPM_P2
2022/03/12 00:00:00;;;;;;;12.7;10.8;;;;;;;10.4;53.6;101050;;;;
2022/03/12 00:01:00;;;;;;;12.7;10.8;;;;;;;10.2;53.2;101040;;;;
2022/03/12 00:02:00;;;;;;;12.7;10.8;;;;;;;10.2;53.2;101040;;;;
2022/03/12 00:03:00;;;;;;;12.7;10.8;;;;;;;10.2;53.1;101050;;;;
2022/03/12 00:04:00;;;;;;;12.7;10.8;;;;;;;10.2;53.1;101050;;;;
2022/03/12 00:05:00;;;;;;;12.7;10.8;;;;;;;10.3;53.4;101050;;;;
2022/03/12 00:06:00;;;;;;;12.7;10.8;;;;;;;10.3;53.4;101050;;;;
2022/03/12 00:07:00;;;;;;;12.7;10.8;;;;;;;10.2;53.6;101050;;;;
2022/03/12 00:08:04;;;;;;;12.7;10.8;;;;;;;10.2;53.6;101050;;;;
2022/03/12 00:09:00;;;;;;;12.7;10.8;;;;;;;10.2;53.8;101050;;;;
2022/03/12 00:10:00;;;;;;;12.7;10.8;;;;;;;10.2;53.8;101050;;;;
2022/03/12 00:11:00;;;;;;;12.7;10.8;;;;;;;10.3;53.9;101050;;;;
2022/03/12 00:12:00;;;;;;;12.7;10.8;;;;;;;10.3;53.9;101050;;;;
2022/03/12 00:13:01;;;;;;;12.7;10.8;;;;;;;10.3;53.3;101050;;;;
2022/03/12 00:14:02;;;;;;;12.7;10.8;;;;;;;10.3;53.3;101050;;;;
2022/03/12 00:15:07;;;;;;;12.7;10.8;;;;;;;10.3;53.2;101050;;;;
2022/03/12 00:16:00;;;;;;;12.7;10.8;;;;;;;10.3;53.2;101050;;;;
2022/03/12 00:17:00;;;;;;;12.7;10.8;;;;;;;10.3;53.0;101050;;;;
2022/03/12 00:18:00;;;;;;;12.7;10.8;;;;;;;10.3;53.0;101050;;;;
2022/03/12 00:19:04;;;;;;;12.7;10.8;;;;;;;10.2;53.3;101050;;;;
2022/03/12 00:20:00;;;;;;;12.2;10.9;;;;;;;10.2;53.3;101050;;;;
2022/03/12 00:21:02;;;;;;;12.2;10.9;;;;;;;10.3;54.2;101050;;;;
2022/03/12 00:22:03;;;;;;;12.2;10.9;;;;;;;10.3;54.2;101050;;;;
2022/03/12 00:23:00;;;;;;;12.2;10.9;;;;;;;10.3;53.5;101050;;;;
2022/03/12 00:24:00;;;;;;;12.2;10.9;;;;;;;10.3;53.5;101050;;;;
2022/03/12 00:25:00;;;;;;;12.2;10.9;;;;;;;10.2;53.6;101050;;;;
2022/03/12 00:26:00;;;;;;;12.2;10.9;;;;;;;10.2;53.6;101050;;;;
2022/03/12 00:27:01;;;;;;;12.2;10.9;;;;;;;10.2;55.0;101050;;;;
2022/03/12 00:28:04;;;;;;;12.2;10.9;;;;;;;10.2;55.0;101050;;;;
2022/03/12 00:29:01;;;;;;;12.2;10.9;;;;;;;10.3;54.2;101050;;;;
2022/03/12 00:30:00;;;;;;;12.2;10.9;;;;;;;10.3;54.2;101050;;;;
2022/03/12 00:31:00;;;;;;;12.2;10.9;;;;;;;10.3;53.8;101060;;;;
2022/03/12 00:32:00;;;;;;;12.2;10.9;;;;;;;10.3;53.8;101060;;;;
2022/03/12 00:33:00;;;;;;;12.2;10.9;;;;;;;10.3;53.6;101060;;;;
2022/03/12 00:34:00;;;;;;;12.2;10.9;;;;;;;10.3;53.6;101060;;;;
2022/03/12 00:35:00;;;;;;;12.2;10.9;;;;;;;10.3;53.7;101060;;;;
2022/03/12 00:36:01;;;;;;;12.2;10.9;;;;;;;10.3;53.7;101060;;;;
2022/03/12 00:37:00;;;;;;;12.2;10.9;;;;;;;10.2;53.6;101060;;;;
2022/03/12 00:38:00;;;;;;;12.2;10.9;;;;;;;10.2;53.6;101060;;;;
2022/03/12 00:39:00;;;;;;;12.2;10.9;;;;;;;10.3;53.6;101060;;;;
2022/03/12 00:40:00;;;;;;;12.7;10.7;;;;;;;10.3;53.6;101060;;;;
2022/03/12 00:41:03;;;;;;;12.7;10.7;;;;;;;10.3;53.8;101060;;;;
2022/03/12 00:42:00;;;;;;;12.7;10.7;;;;;;;10.3;53.8;101060;;;;
2022/03/12 00:43:00;;;;;;;12.7;10.7;;;;;;;10.4;53.7;101060;;;;
2022/03/12 00:44:00;;;;;;;12.7;10.7;;;;;;;10.4;53.7;101060;;;;
2022/03/12 00:45:00;;;;;;;12.7;10.7;;;;;;;10.4;54.2;101060;;;;
2022/03/12 00:46:00;;;;;;;12.7;10.7;;;;;;;10.4;54.2;101060;;;;
2022/03/12 00:47:02;;;;;;;12.7;10.7;;;;;;;10.3;54.1;101070;;;;
2022/03/12 00:48:00;;;;;;;12.7;10.7;;;;;;;10.3;54.1;101070;;;;
2022/03/12 00:49:00;;;;;;;12.7;10.7;;;;;;;10.3;54.0;101070;;;;
2022/03/12 00:50:00;;;;;;;12.7;10.7;;;;;;;10.3;54.0;101070;;;;
2022/03/12 00:51:00;;;;;;;12.7;10.7;;;;;;;10.2;53.8;101070;;;;
2022/03/12 00:52:00;;;;;;;12.7;10.7;;;;;;;10.2;53.8;101070;;;;
2022/03/12 00:53:00;;;;;;;12.7;10.7;;;;;;;10.3;53.8;101070;;;;
2022/03/12 00:54:00;;;;;;;12.7;10.7;;;;;;;10.3;53.8;101070;;;;
2022/03/12 00:55:00;;;;;;;12.7;10.7;;;;;;;10.2;53.9;101070;;;;
2022/03/12 00:56:00;;;;;;;12.7;10.7;;;;;;;10.2;53.9;101070;;;;
2022/03/12 00:57:00;;;;;;;12.7;10.7;;;;;;;10.3;53.8;101070;;;;
2022/03/12 00:58:00;;;;;;;12.7;10.7;;;;;;;10.3;53.8;101070;;;;
2022/03/12 00:59:00;;;;;;;12.7;10.7;;;;;;;10.2;54.2;101070;;;;
2022/03/12 01:00:00;;;;;;;14.2;11.6;;;;;;;10.2;54.2;101070;;;;
2022/03/12 01:01:01;;;;;;;14.2;11.6;;;;;;;10.3;54.4;101070;;;;
2022/03/12 01:02:00;;;;;;;14.2;11.6;;;;;;;10.3;54.4;101070;;;;
2022/03/12 01:03:01;;;;;;;14.2;11.6;;;;;;;10.2;54.1;101070;;;;
2022/03/12 01:04:00;;;;;;;14.2;11.6;;;;;;;10.2;54.1;101070;;;;
2022/03/12 01:05:00;;;;;;;14.2;11.6;;;;;;;10.3;55.1;101070;;;;
2022/03/12 01:06:01;;;;;;;14.2;11.6;;;;;;;10.3;55.1;101070;;;;
2022/03/12 01:07:00;;;;;;;14.2;11.6;;;;;;;10.3;54.4;101070;;;;
2022/03/12 01:08:00;;;;;;;14.2;11.6;;;;;;;10.3;54.4;101070;;;;
2022/03/12 01:09:01;;;;;;;14.2;11.6;;;;;;;10.3;54.4;101070;;;;
2022/03/12 01:10:00;;;;;;;14.2;11.6;;;;;;;10.3;54.4;101070;;;;
2022/03/12 01:11:02;;;;;;;14.2;11.6;;;;;;;10.3;54.8;101070;;;;
2022/03/12 01:12:00;;;;;;;14.2;11.6;;;;;;;10.3;54.8;101070;;;;
2022/03/12 01:13:00;;;;;;;14.2;11.6;;;;;;;10.2;55.3;101070;;;;
2022/03/12 01:14:00;;;;;;;14.2;11.6;;;;;;;10.2;55.3;101070;;;;
2022/03/12 01:15:00;;;;;;;14.2;11.6;;;;;;;10.3;55.5;101080;;;;
2022/03/12 01:16:01;;;;;;;14.2;11.6;;;;;;;10.3;55.5;101080;;;;
2022/03/12 01:17:00;;;;;;;14.2;11.6;;;;;;;10.3;55.7;101070;;;;
2022/03/12 01:18:00;;;;;;;14.2;11.6;;;;;;;10.3;55.7;101070;;;;
2022/03/12 01:19:00;;;;;;;14.2;11.6;;;;;;;10.3;55.8;101080;;;;
2022/03/12 01:20:00;;;;;;;13.1;11.3;;;;;;;10.3;55.8;101080;;;;
2022/03/12 01:21:06;;;;;;;13.1;11.3;;;;;;;10.2;55.9;101080;;;;
2022/03/12 01:22:00;;;;;;;13.1;11.3;;;;;;;10.2;55.9;101080;;;;
2022/03/12 01:23:00;;;;;;;13.1;11.3;;;;;;;10.3;56.9;101080;;;;
2022/03/12 01:24:00;;;;;;;13.1;11.3;;;;;;;10.3;56.9;101080;;;;
2022/03/12 01:25:00;;;;;;;13.1;11.3;;;;;;;10.3;57.0;101080;;;;
2022/03/12 01:26:00;;;;;;;13.1;11.3;;;;;;;10.3;57.0;101080;;;;
2022/03/12 01:27:00;;;;;;;13.1;11.3;;;;;;;10.3;57.1;101080;;;;
2022/03/12 01:28:00;;;;;;;13.1;11.3;;;;;;;10.3;57.1;101080;;;;
2022/03/12 01:29:00;;;;;;;13.1;11.3;;;;;;;10.4;57.7;101080;;;;
2022/03/12 01:30:00;;;;;;;13.1;11.3;;;;;;;10.4;57.7;101080;;;;
2022/03/12 01:31:00;;;;;;;13.1;11.3;;;;;;;10.4;58.3;101080;;;;
2022/03/12 01:32:00;;;;;;;13.1;11.3;;;;;;;10.4;58.3;101080;;;;
2022/03/12 01:33:00;;;;;;;13.1;11.3;;;;;;;10.4;58.4;101080;;;;
2022/03/12 01:34:00;;;;;;;13.1;11.3;;;;;;;10.4;58.4;101080;;;;
2022/03/12 01:35:00;;;;;;;13.1;11.3;;;;;;;10.4;57.9;101080;;;;
2022/03/12 01:36:00;;;;;;;13.1;11.3;;;;;;;10.4;57.9;101080;;;;
2022/03/12 01:37:00;;;;;;;13.1;11.3;;;;;;;10.4;57.9;101090;;;;
2022/03/12 01:38:01;;;;;;;13.1;11.3;;;;;;;10.4;57.9;101090;;;;
2022/03/12 01:39:01;;;;;;;13.1;11.3;;;;;;;10.4;58.8;101090;;;;
2022/03/12 01:40:00;;;;;;;13.5;11.7;;;;;;;10.4;58.8;101090;;;;
2022/03/12 01:41:03;;;;;;;13.5;11.7;;;;;;;10.4;59.8;101090;;;;
2022/03/12 01:42:03;;;;;;;13.5;11.7;;;;;;;10.4;59.8;101090;;;;
2022/03/12 01:43:00;;;;;;;13.5;11.7;;;;;;;10.3;59.8;101090;;;;
2022/03/12 01:44:02;;;;;;;13.5;11.7;;;;;;;10.3;59.8;101090;;;;
2022/03/12 01:45:00;;;;;;;13.5;11.7;;;;;;;10.4;59.9;101090;;;;
2022/03/12 01:46:01;;;;;;;13.5;11.7;;;;;;;10.4;59.9;101090;;;;
2022/03/12 01:47:05;;;;;;;13.5;11.7;;;;;;;10.3;61.7;101090;;;;
2022/03/12 01:48:02;;;;;;;13.5;11.7;;;;;;;10.3;61.7;101090;;;;
2022/03/12 01:49:03;;;;;;;13.5;11.7;;;;;;;10.2;61.9;101090;;;;
2022/03/12 01:50:01;;;;;;;13.5;11.7;;;;;;;10.2;61.9;101090;;;;
2022/03/12 01:51:00;;;;;;;13.5;11.7;;;;;;;10.3;62.0;101100;;;;
2022/03/12 01:52:00;;;;;;;13.5;11.7;;;;;;;10.3;62.0;101100;;;;
2022/03/12 01:53:02;;;;;;;13.5;11.7;;;;;;;10.3;62.5;101100;;;;
2022/03/12 01:54:01;;;;;;;13.5;11.7;;;;;;;10.3;62.5;101100;;;;
2022/03/12 01:55:00;;;;;;;13.5;11.7;;;;;;;10.3;63.7;101100;;;;
2022/03/12 01:56:00;;;;;;;13.5;11.7;;;;;;;10.3;63.7;101100;;;;
2022/03/12 01:57:00;;;;;;;13.5;11.7;;;;;;;10.3;64.4;101100;;;;
2022/03/12 01:58:02;;;;;;;13.5;11.7;;;;;;;10.3;64.4;101100;;;;
2022/03/12 01:59:01;;;;;;;13.5;11.7;;;;;;;10.2;65.9;101100;;;;
2022/03/12 02:00:00;;;;;;;14.1;11.8;;;;;;;10.2;65.9;101100;;;;
2022/03/12 02:01:00;;;;;;;14.1;11.8;;;;;;;10.2;65.3;101100;;;;
2022/03/12 02:02:03;;;;;;;14.1;11.8;;;;;;;10.2;65.3;101100;;;;
2022/03/12 02:03:00;;;;;;;14.1;11.8;;;;;;;10.1;64.8;101100;;;;
2022/03/12 02:04:00;;;;;;;14.1;11.8;;;;;;;10.1;64.8;101100;;;;
2022/03/12 02:05:05;;;;;;;14.1;11.8;;;;;;;10.2;64.9;101100;;;;
2022/03/12 02:06:00;;;;;;;14.1;11.8;;;;;;;10.2;64.9;101100;;;;
2022/03/12 02:07:00;;;;;;;14.1;11.8;;;;;;;10.1;65.4;101110;;;;
2022/03/12 02:08:01;;;;;;;14.1;11.8;;;;;;;10.1;65.4;101110;;;;
2022/03/12 02:09:00;;;;;;;14.1;11.8;;;;;;;10.0;65.6;101110;;;;
2022/03/12 02:10:00;;;;;;;14.1;11.8;;;;;;;10.0;65.6;101110;;;;
2022/03/12 02:11:01;;;;;;;14.1;11.8;;;;;;;10.1;65.9;101110;;;;
2022/03/12 02:12:00;;;;;;;14.1;11.8;;;;;;;10.1;65.9;101110;;;;
2022/03/12 02:13:00;;;;;;;14.1;11.8;;;;;;;10.1;66.2;101110;;;;
2022/03/12 02:14:01;;;;;;;14.1;11.8;;;;;;;10.1;66.2;101110;;;;
2022/03/12 02:15:00;;;;;;;14.1;11.8;;;;;;;10.1;69.4;101100;;;;
2022/03/12 02:16:08;;;;;;;14.1;11.8;;;;;;;10.1;69.4;101100;;;;
2022/03/12 02:17:02;;;;;;;14.1;11.8;;;;;;;10.1;67.7;101100;;;;
2022/03/12 02:18:00;;;;;;;14.1;11.8;;;;;;;10.1;67.7;101100;;;;
2022/03/12 02:19:00;;;;;;;14.1;11.8;;;;;;;10.1;69.1;101100;;;;
2022/03/12 02:20:00;;;;;;;12.3;10.9;;;;;;;10.1;69.1;101100;;;;
2022/03/12 02:21:00;;;;;;;12.3;10.9;;;;;;;10.1;70.5;101100;;;;
2022/03/12 02:22:01;;;;;;;12.3;10.9;;;;;;;10.1;70.5;101100;;;;
2022/03/12 02:23:00;;;;;;;12.3;10.9;;;;;;;10.0;70.3;101100;;;;
2022/03/12 02:24:02;;;;;;;12.3;10.9;;;;;;;10.0;70.3;101100;;;;
2022/03/12 02:25:00;;;;;;;12.3;10.9;;;;;;;9.9;70.6;101100;;;;
2022/03/12 02:26:01;;;;;;;12.3;10.9;;;;;;;9.9;70.6;101100;;;;
2022/03/12 02:27:01;;;;;;;12.3;10.9;;;;;;;9.9;69.9;101100;;;;
2022/03/12 02:28:01;;;;;;;12.3;10.9;;;;;;;9.9;69.9;101100;;;;
2022/03/12 02:29:00;;;;;;;12.3;10.9;;;;;;;9.9;69.3;101100;;;;
2022/03/12 02:30:02;;;;;;;12.3;10.9;;;;;;;9.9;69.3;101100;;;;
2022/03/12 02:31:00;;;;;;;12.3;10.9;;;;;;;9.9;71.9;101100;;;;
2022/03/12 02:32:03;;;;;;;12.3;10.9;;;;;;;9.9;71.9;101100;;;;
2022/03/12 02:33:01;;;;;;;12.3;10.9;;;;;;;9.9;69.9;101100;;;;
2022/03/12 02:34:01;;;;;;;12.3;10.9;;;;;;;9.9;69.9;101100;;;;
2022/03/12 02:35:00;;;;;;;12.3;10.9;;;;;;;10.1;69.0;101100;;;;
2022/03/12 02:36:00;;;;;;;12.3;10.9;;;;;;;10.1;69.0;101100;;;;
2022/03/12 02:37:00;;;;;;;12.3;10.9;;;;;;;9.9;70.9;101090;;;;
2022/03/12 02:38:01;;;;;;;12.3;10.9;;;;;;;9.9;70.9;101090;;;;
2022/03/12 02:39:04;;;;;;;13.4;11.2;;;;;;;9.9;72.3;101100;;;;
2022/03/12 02:40:09;;;;;;;13.4;11.2;;;;;;;9.9;72.3;101100;;;;
2022/03/12 02:41:10;;;;;;;13.4;11.2;;;;;;;10.0;73.5;101100;;;;
2022/03/12 02:42:01;;;;;;;13.4;11.2;;;;;;;10.0;73.5;101100;;;;
2022/03/12 02:43:00;;;;;;;13.4;11.2;;;;;;;9.8;76.1;101100;;;;
2022/03/12 02:44:00;;;;;;;13.4;11.2;;;;;;;9.8;76.1;101100;;;;
2022/03/12 02:45:00;;;;;;;13.4;11.2;;;;;;;9.8;79.3;101110;;;;
2022/03/12 02:46:02;;;;;;;13.4;11.2;;;;;;;9.8;79.3;101110;;;;
2022/03/12 02:47:11;;;;;;;13.4;11.2;;;;;;;9.8;79.1;101110;;;;
2022/03/12 02:48:00;;;;;;;13.4;11.2;;;;;;;9.8;79.1;101110;;;;
2022/03/12 02:49:00;;;;;;;13.4;11.2;;;;;;;9.9;78.6;101110;;;;
2022/03/12 02:50:03;;;;;;;13.4;11.2;;;;;;;9.9;78.6;101110;;;;
2022/03/12 02:51:01;;;;;;;13.4;11.2;;;;;;;9.8;78.3;101110;;;;
2022/03/12 02:52:00;;;;;;;13.4;11.2;;;;;;;9.8;78.3;101110;;;;
2022/03/12 02:53:00;;;;;;;13.4;11.2;;;;;;;9.8;79.1;101100;;;;
2022/03/12 02:54:00;;;;;;;13.4;11.2;;;;;;;9.8;79.1;101100;;;;
2022/03/12 02:55:00;;;;;;;13.4;11.2;;;;;;;9.8;78.9;101110;;;;
2022/03/12 02:56:00;;;;;;;13.4;11.2;;;;;;;9.8;78.9;101110;;;;
2022/03/12 02:57:02;;;;;;;13.4;11.2;;;;;;;9.9;77.2;101100;;;;
2022/03/12 02:58:00;;;;;;;13.4;11.2;;;;;;;9.9;77.2;101100;;;;
2022/03/12 02:59:00;;;;;;;12.7;11.4;;;;;;;9.8;77.9;101110;;;;
2022/03/12 03:00:04;;;;;;;12.7;11.4;;;;;;;9.8;77.9;101110;;;;
2022/03/12 03:01:03;;;;;;;12.7;11.4;;;;;;;9.9;77.4;101120;;;;
2022/03/12 03:02:03;;;;;;;12.7;11.4;;;;;;;9.9;77.4;101120;;;;
2022/03/12 03:03:01;;;;;;;12.7;11.4;;;;;;;9.8;76.5;101110;;;;
2022/03/12 03:04:00;;;;;;;12.7;11.4;;;;;;;9.8;76.5;101110;;;;
2022/03/12 03:05:00;;;;;;;12.7;11.4;;;;;;;9.9;77.1;101110;;;;
2022/03/12 03:06:00;;;;;;;12.7;11.4;;;;;;;9.9;77.1;101110;;;;
2022/03/12 03:07:00;;;;;;;12.7;11.4;;;;;;;9.9;76.0;101110;;;;
2022/03/12 03:08:02;;;;;;;12.7;11.4;;;;;;;9.9;76.0;101110;;;;
2022/03/12 03:09:00;;;;;;;12.7;11.4;;;;;;;9.8;77.9;101120;;;;
2022/03/12 03:10:00;;;;;;;12.7;11.4;;;;;;;9.8;77.9;101120;;;;
2022/03/12 03:11:00;;;;;;;12.7;11.4;;;;;;;9.7;77.0;101120;;;;
2022/03/12 03:12:03;;;;;;;12.7;11.4;;;;;;;9.7;77.0;101120;;;;
2022/03/12 03:13:11;;;;;;;12.7;11.4;;;;;;;9.8;76.8;101120;;;;
2022/03/12 03:14:00;;;;;;;12.7;11.4;;;;;;;9.8;76.8;101120;;;;
2022/03/12 03:15:00;;;;;;;12.7;11.4;;;;;;;9.8;76.3;101120;;;;
2022/03/12 03:16:03;;;;;;;12.7;11.4;;;;;;;9.8;76.3;101120;;;;
2022/03/12 03:17:01;;;;;;;12.7;11.4;;;;;;;9.8;79.5;101130;;;;
2022/03/12 03:18:04;;;;;;;12.7;11.4;;;;;;;9.8;79.5;101130;;;;
2022/03/12 03:19:00;;;;;;;12.9;11.5;;;;;;;9.7;77.0;101120;;;;
2022/03/12 03:20:00;;;;;;;12.9;11.5;;;;;;;9.7;77.0;101120;;;;
2022/03/12 03:21:01;;;;;;;12.9;11.5;;;;;;;9.8;77.3;101130;;;;
2022/03/12 03:22:00;;;;;;;12.9;11.5;;;;;;;9.8;77.3;101130;;;;
2022/03/12 03:23:00;;;;;;;12.9;11.5;;;;;;;9.9;77.0;101120;;;;
2022/03/12 03:24:00;;;;;;;12.9;11.5;;;;;;;9.9;77.0;101120;;;;
2022/03/12 03:25:00;;;;;;;12.9;11.5;;;;;;;9.8;78.5;101120;;;;
2022/03/12 03:26:00;;;;;;;12.9;11.5;;;;;;;9.8;78.5;101120;;;;
2022/03/12 03:27:00;;;;;;;12.9;11.5;;;;;;;9.7;78.7;101120;;;;
2022/03/12 03:28:00;;;;;;;12.9;11.5;;;;;;;9.7;78.7;101120;;;;
2022/03/12 03:29:00;;;;;;;12.9;11.5;;;;;;;9.8;78.9;101120;;;;
2022/03/12 03:30:00;;;;;;;12.9;11.5;;;;;;;9.8;78.9;101120;;;;
2022/03/12 03:31:00;;;;;;;12.9;11.5;;;;;;;9.7;79.1;101120;;;;
2022/03/12 03:32:01;;;;;;;12.9;11.5;;;;;;;9.7;79.1;101120;;;;
2022/03/12 03:33:00;;;;;;;12.9;11.5;;;;;;;9.8;79.4;101120;;;;
2022/03/12 03:34:00;;;;;;;12.9;11.5;;;;;;;9.8;79.4;101120;;;;
2022/03/12 03:35:00;;;;;;;12.9;11.5;;;;;;;9.8;78.6;101120;;;;
2022/03/12 03:36:00;;;;;;;12.9;11.5;;;;;;;9.8;78.6;101120;;;;
2022/03/12 03:37:00;;;;;;;12.9;11.5;;;;;;;9.9;79.4;101130;;;;
2022/03/12 03:38:00;;;;;;;12.9;11.5;;;;;;;9.9;79.4;101130;;;;
2022/03/12 03:39:00;;;;;;;15.4;12.6;;;;;;;9.8;80.1;101130;;;;
2022/03/12 03:40:01;;;;;;;15.4;12.6;;;;;;;9.8;80.1;101130;;;;
2022/03/12 03:41:00;;;;;;;15.4;12.6;;;;;;;9.7;80.6;101140;;;;
2022/03/12 03:42:00;;;;;;;15.4;12.6;;;;;;;9.7;80.6;101140;;;;
2022/03/12 03:43:00;;;;;;;15.4;12.6;;;;;;;9.8;82.5;101140;;;;
2022/03/12 03:44:00;;;;;;;15.4;12.6;;;;;;;9.8;82.5;101140;;;;
2022/03/12 03:45:02;;;;;;;15.4;12.6;;;;;;;9.7;82.5;101140;;;;
2022/03/12 03:46:03;;;;;;;15.4;12.6;;;;;;;9.7;82.5;101140;;;;
2022/03/12 03:47:00;;;;;;;15.4;12.6;;;;;;;9.7;83.9;101140;;;;
2022/03/12 03:48:00;;;;;;;15.4;12.6;;;;;;;9.7;83.9;101140;;;;
2022/03/12 03:49:01;;;;;;;15.4;12.6;;;;;;;9.7;82.2;101140;;;;
2022/03/12 03:50:00;;;;;;;15.4;12.6;;;;;;;9.7;82.2;101140;;;;
2022/03/12 03:51:00;;;;;;;15.4;12.6;;;;;;;9.7;83.6;101150;;;;
2022/03/12 03:52:00;;;;;;;15.4;12.6;;;;;;;9.7;83.6;101150;;;;
2022/03/12 03:53:03;;;;;;;15.4;12.6;;;;;;;9.6;84.8;101150;;;;
2022/03/12 03:54:00;;;;;;;15.4;12.6;;;;;;;9.6;84.8;101150;;;;
2022/03/12 03:55:00;;;;;;;15.4;12.6;;;;;;;9.6;86.8;101150;;;;
2022/03/12 03:56:01;;;;;;;15.4;12.6;;;;;;;9.6;86.8;101150;;;;
2022/03/12 03:57:00;;;;;;;15.4;12.6;;;;;;;9.6;85.9;101160;;;;
2022/03/12 03:58:01;;;;;;;15.4;12.6;;;;;;;9.6;85.9;101160;;;;
2022/03/12 03:59:00;;;;;;;13.9;12.4;;;;;;;9.5;87.7;101160;;;;
2022/03/12 04:00:00;;;;;;;13.9;12.4;;;;;;;9.5;87.7;101160;;;;
2022/03/12 04:01:02;;;;;;;13.9;12.4;;;;;;;9.4;88.8;101160;;;;
2022/03/12 04:02:00;;;;;;;13.9;12.4;;;;;;;9.4;88.8;101160;;;;
2022/03/12 04:03:02;;;;;;;13.9;12.4;;;;;;;9.4;88.9;101160;;;;
2022/03/12 04:04:00;;;;;;;13.9;12.4;;;;;;;9.4;88.9;101160;;;;
2022/03/12 04:05:00;;;;;;;13.9;12.4;;;;;;;9.3;90.1;101160;;;;
2022/03/12 04:06:01;;;;;;;13.9;12.4;;;;;;;9.3;90.1;101160;;;;
2022/03/12 04:07:00;;;;;;;13.9;12.4;;;;;;;9.3;88.7;101160;;;;
2022/03/12 04:08:00;;;;;;;13.9;12.4;;;;;;;9.3;88.7;101160;;;;
2022/03/12 04:09:00;;;;;;;13.9;12.4;;;;;;;9.3;90.0;101160;;;;
2022/03/12 04:10:00;;;;;;;13.9;12.4;;;;;;;9.3;90.0;101160;;;;
2022/03/12 04:11:05;;;;;;;13.9;12.4;;;;;;;9.2;90.4;101160;;;;
2022/03/12 04:12:00;;;;;;;13.9;12.4;;;;;;;9.2;90.4;101160;;;;
2022/03/12 04:13:00;;;;;;;13.9;12.4;;;;;;;9.2;91.2;101170;;;;
2022/03/12 04:14:01;;;;;;;13.9;12.4;;;;;;;9.2;91.2;101170;;;;
2022/03/12 04:15:00;;;;;;;13.9;12.4;;;;;;;9.1;94.7;101170;;;;
2022/03/12 04:16:00;;;;;;;13.9;12.4;;;;;;;9.1;94.7;101170;;;;
2022/03/12 04:17:00;;;;;;;13.9;12.4;;;;;;;9.1;93.2;101160;;;;
2022/03/12 04:18:00;;;;;;;13.9;12.4;;;;;;;9.1;93.2;101160;;;;
2022/03/12 04:19:06;;;;;;;13.6;12.2;;;;;;;9.2;94.0;101170;;;;
2022/03/12 04:20:00;;;;;;;13.6;12.2;;;;;;;9.2;94.0;101170;;;;
2022/03/12 04:21:00;;;;;;;13.6;12.2;;;;;;;9.1;94.4;101170;;;;
2022/03/12 04:22:01;;;;;;;13.6;12.2;;;;;;;9.1;94.4;101170;;;;
2022/03/12 04:23:00;;;;;;;13.6;12.2;;;;;;;9.1;96.7;101180;;;;
2022/03/12 04:24:00;;;;;;;13.6;12.2;;;;;;;9.1;96.7;101180;;;;
2022/03/12 04:25:00;;;;;;;13.6;12.2;;;;;;;9.0;97.7;101180;;;;
2022/03/12 04:26:00;;;;;;;13.6;12.2;;;;;;;9.0;97.7;101180;;;;
2022/03/12 04:27:01;;;;;;;13.6;12.2;;;;;;;8.9;97.3;101180;;;;
2022/03/12 04:28:00;;;;;;;13.6;12.2;;;;;;;8.9;97.3;101180;;;;
2022/03/12 04:29:00;;;;;;;13.6;12.2;;;;;;;8.9;98.5;101190;;;;
2022/03/12 04:30:00;;;;;;;13.6;12.2;;;;;;;8.9;98.5;101190;;;;
2022/03/12 04:31:00;;;;;;;13.6;12.2;;;;;;;8.9;96.4;101190;;;;
2022/03/12 04:32:00;;;;;;;13.6;12.2;;;;;;;8.9;96.4;101190;;;;
2022/03/12 04:33:00;;;;;;;13.6;12.2;;;;;;;8.9;100.0;101190;;;;
2022/03/12 04:34:00;;;;;;;13.6;12.2;;;;;;;8.9;100.0;101190;;;;
2022/03/12 04:35:00;;;;;;;13.6;12.2;;;;;;;8.8;97.2;101190;;;;
2022/03/12 04:36:01;;;;;;;13.6;12.2;;;;;;;8.8;97.2;101190;;;;
2022/03/12 04:37:00;;;;;;;13.6;12.2;;;;;;;8.8;100.0;101190;;;;
2022/03/12 04:38:00;;;;;;;13.6;12.2;;;;;;;8.8;100.0;101190;;;;
2022/03/12 04:39:00;;;;;;;14.1;12.6;;;;;;;8.7;100.0;101180;;;;
2022/03/12 04:40:01;;;;;;;14.1;12.6;;;;;;;8.7;100.0;101180;;;;
2022/03/12 04:41:00;;;;;;;14.1;12.6;;;;;;;8.7;100.0;101190;;;;
2022/03/12 04:42:00;;;;;;;14.1;12.6;;;;;;;8.7;100.0;101190;;;;
2022/03/12 04:43:00;;;;;;;14.1;12.6;;;;;;;8.7;100.0;101190;;;;
2022/03/12 04:44:00;;;;;;;14.1;12.6;;;;;;;8.7;100.0;101190;;;;
2022/03/12 04:45:00;;;;;;;14.1;12.6;;;;;;;8.7;100.0;101190;;;;
2022/03/12 04:46:02;;;;;;;14.1;12.6;;;;;;;8.7;100.0;101190;;;;
2022/03/12 04:47:00;;;;;;;14.1;12.6;;;;;;;8.6;100.0;101180;;;;
2022/03/12 04:48:00;;;;;;;14.1;12.6;;;;;;;8.6;100.0;101180;;;;
2022/03/12 04:49:00;;;;;;;14.1;12.6;;;;;;;8.6;100.0;101190;;;;
2022/03/12 04:50:00;;;;;;;14.1;12.6;;;;;;;8.6;100.0;101190;;;;
2022/03/12 04:51:00;;;;;;;14.1;12.6;;;;;;;8.7;100.0;101190;;;;
2022/03/12 04:52:00;;;;;;;14.1;12.6;;;;;;;8.7;100.0;101190;;;;
2022/03/12 04:53:01;;;;;;;14.1;12.6;;;;;;;8.5;100.0;101200;;;;
2022/03/12 04:54:00;;;;;;;14.1;12.6;;;;;;;8.5;100.0;101200;;;;
2022/03/12 04:55:07;;;;;;;14.1;12.6;;;;;;;8.5;100.0;101200;;;;
2022/03/12 04:56:00;;;;;;;14.1;12.6;;;;;;;8.5;100.0;101200;;;;
2022/03/12 04:57:00;;;;;;;14.1;12.6;;;;;;;8.5;100.0;101200;;;;
2022/03/12 04:58:00;;;;;;;14.1;12.6;;;;;;;8.5;100.0;101200;;;;
2022/03/12 04:59:00;;;;;;;13.9;12.4;;;;;;;8.5;100.0;101200;;;;
2022/03/12 05:00:02;;;;;;;13.9;12.4;;;;;;;8.5;100.0;101200;;;;
2022/03/12 05:01:00;;;;;;;13.9;12.4;;;;;;;8.5;100.0;101200;;;;
2022/03/12 05:02:00;;;;;;;13.9;12.4;;;;;;;8.5;100.0;101200;;;;
2022/03/12 05:03:01;;;;;;;13.9;12.4;;;;;;;8.5;100.0;101210;;;;
2022/03/12 05:04:00;;;;;;;13.9;12.4;;;;;;;8.5;100.0;101210;;;;
2022/03/12 05:05:00;;;;;;;13.9;12.4;;;;;;;8.4;100.0;101200;;;;
2022/03/12 05:06:02;;;;;;;13.9;12.4;;;;;;;8.4;100.0;101200;;;;
2022/03/12 05:07:03;;;;;;;13.9;12.4;;;;;;;8.4;100.0;101210;;;;
2022/03/12 05:08:01;;;;;;;13.9;12.4;;;;;;;8.4;100.0;101210;;;;
2022/03/12 05:09:02;;;;;;;13.9;12.4;;;;;;;8.4;100.0;101210;;;;
2022/03/12 05:10:00;;;;;;;13.9;12.4;;;;;;;8.4;100.0;101210;;;;
2022/03/12 05:11:00;;;;;;;13.9;12.4;;;;;;;8.4;100.0;101210;;;;
2022/03/12 05:12:04;;;;;;;13.9;12.4;;;;;;;8.4;100.0;101210;;;;
2022/03/12 05:13:00;;;;;;;13.9;12.4;;;;;;;8.3;100.0;101210;;;;
2022/03/12 05:14:00;;;;;;;13.9;12.4;;;;;;;8.3;100.0;101210;;;;
2022/03/12 05:15:00;;;;;;;13.9;12.4;;;;;;;8.4;100.0;101210;;;;
2022/03/12 05:16:05;;;;;;;13.9;12.4;;;;;;;8.4;100.0;101210;;;;
2022/03/12 05:17:03;;;;;;;13.9;12.4;;;;;;;8.3;100.0;101210;;;;
2022/03/12 05:18:01;;;;;;;13.9;12.4;;;;;;;8.3;100.0;101210;;;;
2022/03/12 05:19:01;;;;;;;14.2;12.7;;;;;;;8.3;100.0;101220;;;;
2022/03/12 05:20:00;;;;;;;14.2;12.7;;;;;;;8.3;100.0;101220;;;;
2022/03/12 05:21:00;;;;;;;14.2;12.7;;;;;;;8.4;100.0;101210;;;;
2022/03/12 05:22:00;;;;;;;14.2;12.7;;;;;;;8.4;100.0;101210;;;;
2022/03/12 05:23:00;;;;;;;14.2;12.7;;;;;;;8.4;100.0;101210;;;;
2022/03/12 05:24:00;;;;;;;14.2;12.7;;;;;;;8.4;100.0;101210;;;;
2022/03/12 05:25:00;;;;;;;14.2;12.7;;;;;;;8.3;100.0;101210;;;;
2022/03/12 05:26:00;;;;;;;14.2;12.7;;;;;;;8.3;100.0;101210;;;;
2022/03/12 05:27:00;;;;;;;14.2;12.7;;;;;;;8.3;100.0;101210;;;;
2022/03/12 05:28:00;;;;;;;14.2;12.7;;;;;;;8.3;100.0;101210;;;;
2022/03/12 05:29:00;;;;;;;14.2;12.7;;;;;;;8.3;100.0;101210;;;;
2022/03/12 05:30:00;;;;;;;14.2;12.7;;;;;;;8.3;100.0;101210;;;;
2022/03/12 05:31:04;;;;;;;14.2;12.7;;;;;;;8.4;100.0;101220;;;;
2022/03/12 05:32:00;;;;;;;14.2;12.7;;;;;;;8.4;100.0;101220;;;;
2022/03/12 05:33:00;;;;;;;14.2;12.7;;;;;;;8.2;100.0;101220;;;;
2022/03/12 05:34:00;;;;;;;14.2;12.7;;;;;;;8.2;100.0;101220;;;;
2022/03/12 05:35:00;;;;;;;14.2;12.7;;;;;;;8.2;100.0;101220;;;;
2022/03/12 05:36:00;;;;;;;14.2;12.7;;;;;;;8.2;100.0;101220;;;;
2022/03/12 05:37:01;;;;;;;14.2;12.7;;;;;;;8.2;100.0;101220;;;;
2022/03/12 05:38:01;;;;;;;14.2;12.7;;;;;;;8.2;100.0;101220;;;;
2022/03/12 05:39:00;;;;;;;12.7;11.4;;;;;;;8.2;100.0;101230;;;;
2022/03/12 05:40:00;;;;;;;12.7;11.4;;;;;;;8.2;100.0;101230;;;;
2022/03/12 05:41:00;;;;;;;12.7;11.4;;;;;;;8.2;100.0;101230;;;;
2022/03/12 05:42:01;;;;;;;12.7;11.4;;;;;;;8.2;100.0;101230;;;;
2022/03/12 05:43:00;;;;;;;12.7;11.4;;;;;;;8.2;100.0;101240;;;;
2022/03/12 05:44:00;;;;;;;12.7;11.4;;;;;;;8.2;100.0;101240;;;;
2022/03/12 05:45:02;;;;;;;12.7;11.4;;;;;;;8.3;100.0;101230;;;;
2022/03/12 05:46:00;;;;;;;12.7;11.4;;;;;;;8.3;100.0;101230;;;;
2022/03/12 05:47:01;;;;;;;12.7;11.4;;;;;;;8.2;100.0;101230;;;;
2022/03/12 05:48:00;;;;;;;12.7;11.4;;;;;;;8.2;100.0;101230;;;;
2022/03/12 05:49:00;;;;;;;12.7;11.4;;;;;;;8.2;100.0;101230;;;;
2022/03/12 05:50:00;;;;;;;12.7;11.4;;;;;;;8.2;100.0;101230;;;;
2022/03/12 05:51:00;;;;;;;12.7;11.4;;;;;;;8.2;100.0;101230;;;;
2022/03/12 05:52:00;;;;;;;12.7;11.4;;;;;;;8.2;100.0;101230;;;;
2022/03/12 05:53:01;;;;;;;12.7;11.4;;;;;;;8.3;100.0;101230;;;;
2022/03/12 05:54:00;;;;;;;12.7;11.4;;;;;;;8.3;100.0;101230;;;;
2022/03/12 05:55:00;;;;;;;12.7;11.4;;;;;;;8.2;100.0;101230;;;;
2022/03/12 05:56:00;;;;;;;12.7;11.4;;;;;;;8.2;100.0;101230;;;;
2022/03/12 05:57:00;;;;;;;12.7;11.4;;;;;;;8.4;100.0;101240;;;;
2022/03/12 05:58:00;;;;;;;12.7;11.4;;;;;;;8.4;100.0;101240;;;;
2022/03/12 05:59:00;;;;;;;13.2;11.8;;;;;;;8.3;100.0;101240;;;;
2022/03/12 06:00:03;;;;;;;13.2;11.8;;;;;;;8.3;100.0;101240;;;;
2022/03/12 06:01:00;;;;;;;13.2;11.8;;;;;;;8.3;100.0;101250;;;;
2022/03/12 06:02:00;;;;;;;13.2;11.8;;;;;;;8.3;100.0;101250;;;;
2022/03/12 06:03:01;;;;;;;13.2;11.8;;;;;;;8.3;100.0;101240;;;;
2022/03/12 06:04:00;;;;;;;13.2;11.8;;;;;;;8.3;100.0;101240;;;;
2022/03/12 06:05:00;;;;;;;13.2;11.8;;;;;;;8.4;100.0;101240;;;;
2022/03/12 06:06:00;;;;;;;13.2;11.8;;;;;;;8.4;100.0;101240;;;;
2022/03/12 06:07:00;;;;;;;13.2;11.8;;;;;;;8.3;100.0;101240;;;;
2022/03/12 06:08:00;;;;;;;13.2;11.8;;;;;;;8.3;100.0;101240;;;;
2022/03/12 06:09:00;;;;;;;13.2;11.8;;;;;;;8.3;100.0;101240;;;;
2022/03/12 06:10:00;;;;;;;13.2;11.8;;;;;;;8.3;100.0;101240;;;;
2022/03/12 06:11:04;;;;;;;13.2;11.8;;;;;;;8.4;100.0;101250;;;;
2022/03/12 06:12:00;;;;;;;13.2;11.8;;;;;;;8.4;100.0;101250;;;;
2022/03/12 06:13:00;;;;;;;13.2;11.8;;;;;;;8.3;100.0;101250;;;;
2022/03/12 06:14:00;;;;;;;13.2;11.8;;;;;;;8.3;100.0;101250;;;;
2022/03/12 06:15:00;;;;;;;13.2;11.8;;;;;;;8.4;100.0;101250;;;;
2022/03/12 06:16:02;;;;;;;13.2;11.8;;;;;;;8.4;100.0;101250;;;;
2022/03/12 06:17:00;;;;;;;13.2;11.8;;;;;;;8.5;100.0;101250;;;;
2022/03/12 06:18:00;;;;;;;13.2;11.8;;;;;;;8.5;100.0;101250;;;;